sensor_id;sensor_type;location;lat;lon;timestamp;P1;durP1;ratioP1;P2;durP2;ratioP2
45041;SDS011;30779;52.096;4.410;2022-08-01T00:01:44;7.95;;;5.40;;
45041;SDS011;30779;52.096;4.410;2022-08-01T00:04:45;8.25;;;5.32;;
45041;SDS011;30779;52.096;4.410;2022-08-01T00:07:46;7.65;;;4.68;;
45041;SDS011;30779;52.096;4.410;2022-08-01T00:10:46;8.00;;;4.53;;
45041;SDS011;30779;52.096;4.410;2022-08-01T00:13:47;7.78;;;4.15;;
45041;SDS011;30779;52.096;4.410;2022-08-01T00:16:48;5.82;;;3.78;;
45041;SDS011;30779;52.096;4.410;2022-08-01T00:19:49;5.90;;;3.50;;
45041;SDS011;30779;52.096;4.410;2022-08-01T00:22:49;4.63;;;3.20;;
45041;SDS011;30779;52.096;4.410;2022-08-01T00:25:50;5.15;;;2.63;;
45041;SDS011;30779;52.096;4.410;2022-08-01T00:28:50;5.10;;;2.20;;
45041;SDS011;30779;52.096;4.410;2022-08-01T00:31:51;4.60;;;2.35;;
45041;SDS011;30779;52.096;4.410;2022-08-01T00:34:52;3.53;;;1.88;;
45041;SDS011;30779;52.096;4.410;2022-08-01T00:37:52;3.22;;;2.00;;
45041;SDS011;30779;52.096;4.410;2022-08-01T00:40:53;3.80;;;1.95;;
45041;SDS011;30779;52.096;4.410;2022-08-01T00:43:54;2.42;;;1.92;;
45041;SDS011;30779;52.096;4.410;2022-08-01T00:46:54;4.45;;;1.90;;
45041;SDS011;30779;52.096;4.410;2022-08-01T00:49:55;3.63;;;1.70;;
45041;SDS011;30779;52.096;4.410;2022-08-01T00:52:55;4.35;;;2.33;;
45041;SDS011;30779;52.096;4.410;2022-08-01T00:55:58;4.13;;;2.83;;
45041;SDS011;30779;52.096;4.410;2022-08-01T00:58:59;5.25;;;2.15;;
45041;SDS011;30779;52.096;4.410;2022-08-01T01:02:00;4.00;;;3.10;;
45041;SDS011;30779;52.096;4.410;2022-08-01T01:05:01;3.45;;;2.33;;
45041;SDS011;30779;52.096;4.410;2022-08-01T01:08:04;4.63;;;2.20;;
45041;SDS011;30779;52.096;4.410;2022-08-01T01:11:15;2.40;;;1.83;;
45041;SDS011;30779;52.096;4.410;2022-08-01T01:14:23;2.42;;;1.80;;
45041;SDS011;30779;52.096;4.410;2022-08-01T01:17:48;2.65;;;1.83;;
45041;SDS011;30779;52.096;4.410;2022-08-01T01:31:10;4.07;;;2.42;;
45041;SDS011;30779;52.096;4.410;2022-08-01T01:34:13;3.97;;;2.30;;
45041;SDS011;30779;52.096;4.410;2022-08-01T01:37:20;4.00;;;2.35;;
45041;SDS011;30779;52.096;4.410;2022-08-01T01:40:25;3.42;;;2.67;;
45041;SDS011;30779;52.096;4.410;2022-08-01T01:43:26;3.20;;;2.40;;
45041;SDS011;30779;52.096;4.410;2022-08-01T01:49:31;5.80;;;3.00;;
45041;SDS011;30779;52.096;4.410;2022-08-01T01:52:33;5.82;;;3.28;;
45041;SDS011;30779;52.096;4.410;2022-08-01T01:55:34;5.32;;;3.67;;
45041;SDS011;30779;52.096;4.410;2022-08-01T01:58:37;8.93;;;4.38;;
45041;SDS011;30779;52.096;4.410;2022-08-01T02:01:39;6.73;;;4.10;;
45041;SDS011;30779;52.096;4.410;2022-08-01T02:04:40;6.25;;;4.10;;
45041;SDS011;30779;52.096;4.410;2022-08-01T02:07:42;7.72;;;4.28;;
45041;SDS011;30779;52.096;4.410;2022-08-01T02:10:44;7.60;;;4.18;;
45041;SDS011;30779;52.096;4.410;2022-08-01T02:14:04;5.35;;;3.78;;
45041;SDS011;30779;52.096;4.410;2022-08-01T02:17:11;4.88;;;3.35;;
45041;SDS011;30779;52.096;4.410;2022-08-01T02:20:15;4.78;;;3.35;;
45041;SDS011;30779;52.096;4.410;2022-08-01T02:23:16;4.18;;;3.00;;
45041;SDS011;30779;52.096;4.410;2022-08-01T02:26:18;4.10;;;2.80;;
45041;SDS011;30779;52.096;4.410;2022-08-01T02:29:22;3.88;;;2.40;;
45041;SDS011;30779;52.096;4.410;2022-08-01T02:32:30;4.15;;;2.55;;
45041;SDS011;30779;52.096;4.410;2022-08-01T02:38:42;3.38;;;2.50;;
45041;SDS011;30779;52.096;4.410;2022-08-01T02:41:47;4.90;;;2.20;;
45041;SDS011;30779;52.096;4.410;2022-08-01T02:44:50;5.32;;;2.67;;
45041;SDS011;30779;52.096;4.410;2022-08-01T02:47:55;5.72;;;3.00;;
45041;SDS011;30779;52.096;4.410;2022-08-01T02:51:01;5.38;;;2.70;;
45041;SDS011;30779;52.096;4.410;2022-08-01T02:54:02;4.65;;;2.78;;
45041;SDS011;30779;52.096;4.410;2022-08-01T03:00:07;3.90;;;2.35;;
45041;SDS011;30779;52.096;4.410;2022-08-01T03:03:09;2.45;;;2.00;;
45041;SDS011;30779;52.096;4.410;2022-08-01T03:06:10;4.45;;;2.58;;
45041;SDS011;30779;52.096;4.410;2022-08-01T03:09:12;3.75;;;2.20;;
45041;SDS011;30779;52.096;4.410;2022-08-01T03:12:15;5.85;;;2.35;;
45041;SDS011;30779;52.096;4.410;2022-08-01T03:15:19;3.13;;;2.10;;
45041;SDS011;30779;52.096;4.410;2022-08-01T03:18:23;3.85;;;2.30;;
45041;SDS011;30779;52.096;4.410;2022-08-01T03:21:26;3.13;;;2.17;;
45041;SDS011;30779;52.096;4.410;2022-08-01T03:24:29;3.75;;;2.13;;
45041;SDS011;30779;52.096;4.410;2022-08-01T03:27:32;3.78;;;2.45;;
45041;SDS011;30779;52.096;4.410;2022-08-01T03:30:35;3.78;;;2.25;;
45041;SDS011;30779;52.096;4.410;2022-08-01T03:33:37;2.47;;;1.80;;
45041;SDS011;30779;52.096;4.410;2022-08-01T03:36:43;3.17;;;1.95;;
45041;SDS011;30779;52.096;4.410;2022-08-01T03:39:57;3.67;;;2.05;;
45041;SDS011;30779;52.096;4.410;2022-08-01T03:43:18;6.32;;;3.25;;
45041;SDS011;30779;52.096;4.410;2022-08-01T03:46:26;3.50;;;2.25;;
45041;SDS011;30779;52.096;4.410;2022-08-01T03:49:41;4.13;;;2.53;;
45041;SDS011;30779;52.096;4.410;2022-08-01T03:52:45;5.15;;;2.30;;
45041;SDS011;30779;52.096;4.410;2022-08-01T03:55:47;2.58;;;2.10;;
45041;SDS011;30779;52.096;4.410;2022-08-01T03:58:49;3.13;;;2.03;;
45041;SDS011;30779;52.096;4.410;2022-08-01T04:01:51;3.50;;;2.20;;
45041;SDS011;30779;52.096;4.410;2022-08-01T04:04:52;3.10;;;2.47;;
45041;SDS011;30779;52.096;4.410;2022-08-01T04:07:53;2.95;;;2.10;;
45041;SDS011;30779;52.096;4.410;2022-08-01T04:10:57;3.88;;;2.90;;
45041;SDS011;30779;52.096;4.410;2022-08-01T04:13:58;3.13;;;2.22;;
45041;SDS011;30779;52.096;4.410;2022-08-01T04:16:59;3.58;;;1.80;;
45041;SDS011;30779;52.096;4.410;2022-08-01T04:20:00;2.60;;;2.20;;
45041;SDS011;30779;52.096;4.410;2022-08-01T04:23:00;3.53;;;2.47;;
45041;SDS011;30779;52.096;4.410;2022-08-01T04:26:02;4.32;;;2.65;;
45041;SDS011;30779;52.096;4.410;2022-08-01T04:29:04;3.28;;;2.25;;
45041;SDS011;30779;52.096;4.410;2022-08-01T04:32:06;4.88;;;2.28;;
45041;SDS011;30779;52.096;4.410;2022-08-01T04:35:10;2.60;;;1.92;;
45041;SDS011;30779;52.096;4.410;2022-08-01T04:38:19;2.40;;;1.90;;
45041;SDS011;30779;52.096;4.410;2022-08-01T04:41:24;4.10;;;3.08;;
45041;SDS011;30779;52.096;4.410;2022-08-01T04:44:25;2.75;;;2.55;;
45041;SDS011;30779;52.096;4.410;2022-08-01T04:47:27;3.70;;;2.40;;
45041;SDS011;30779;52.096;4.410;2022-08-01T04:50:30;3.33;;;2.30;;
45041;SDS011;30779;52.096;4.410;2022-08-01T04:53:31;4.03;;;2.35;;
45041;SDS011;30779;52.096;4.410;2022-08-01T04:56:32;3.55;;;2.38;;
45041;SDS011;30779;52.096;4.410;2022-08-01T04:59:35;3.35;;;2.22;;
45041;SDS011;30779;52.096;4.410;2022-08-01T05:02:41;3.55;;;2.25;;
45041;SDS011;30779;52.096;4.410;2022-08-01T05:05:41;5.40;;;2.88;;
45041;SDS011;30779;52.096;4.410;2022-08-01T05:08:42;4.45;;;2.63;;
45041;SDS011;30779;52.096;4.410;2022-08-01T05:11:43;3.67;;;2.53;;
45041;SDS011;30779;52.096;4.410;2022-08-01T05:14:43;3.28;;;2.28;;
45041;SDS011;30779;52.096;4.410;2022-08-01T05:17:44;6.50;;;2.95;;
45041;SDS011;30779;52.096;4.410;2022-08-01T05:20:45;6.30;;;2.88;;
45041;SDS011;30779;52.096;4.410;2022-08-01T05:23:47;6.57;;;3.17;;
45041;SDS011;30779;52.096;4.410;2022-08-01T05:26:49;4.25;;;3.28;;
45041;SDS011;30779;52.096;4.410;2022-08-01T05:29:49;5.88;;;3.58;;
45041;SDS011;30779;52.096;4.410;2022-08-01T05:32:50;6.20;;;3.53;;
45041;SDS011;30779;52.096;4.410;2022-08-01T05:35:50;5.25;;;3.92;;
45041;SDS011;30779;52.096;4.410;2022-08-01T05:38:51;7.47;;;3.80;;
45041;SDS011;30779;52.096;4.410;2022-08-01T05:41:52;6.70;;;3.92;;
45041;SDS011;30779;52.096;4.410;2022-08-01T05:44:52;7.32;;;3.95;;
45041;SDS011;30779;52.096;4.410;2022-08-01T05:47:53;4.50;;;3.30;;
45041;SDS011;30779;52.096;4.410;2022-08-01T05:50:54;4.57;;;3.33;;
45041;SDS011;30779;52.096;4.410;2022-08-01T05:53:55;6.03;;;3.10;;
45041;SDS011;30779;52.096;4.410;2022-08-01T05:56:56;6.32;;;3.90;;
45041;SDS011;30779;52.096;4.410;2022-08-01T05:59:59;5.38;;;3.63;;
45041;SDS011;30779;52.096;4.410;2022-08-01T06:03:00;8.80;;;4.53;;
45041;SDS011;30779;52.096;4.410;2022-08-01T06:06:01;5.63;;;4.30;;
45041;SDS011;30779;52.096;4.410;2022-08-01T06:09:01;7.68;;;3.75;;
45041;SDS011;30779;52.096;4.410;2022-08-01T06:12:02;5.55;;;3.90;;
45041;SDS011;30779;52.096;4.410;2022-08-01T06:15:06;5.90;;;3.55;;
45041;SDS011;30779;52.096;4.410;2022-08-01T06:18:07;6.43;;;3.63;;
45041;SDS011;30779;52.096;4.410;2022-08-01T06:21:08;5.60;;;4.18;;
45041;SDS011;30779;52.096;4.410;2022-08-01T06:24:08;8.35;;;4.25;;
45041;SDS011;30779;52.096;4.410;2022-08-01T06:27:09;6.63;;;4.45;;
45041;SDS011;30779;52.096;4.410;2022-08-01T06:30:10;11.20;;;6.10;;
45041;SDS011;30779;52.096;4.410;2022-08-01T06:33:11;10.90;;;6.20;;
45041;SDS011;30779;52.096;4.410;2022-08-01T06:36:11;12.35;;;6.63;;
45041;SDS011;30779;52.096;4.410;2022-08-01T06:39:12;17.00;;;7.32;;
45041;SDS011;30779;52.096;4.410;2022-08-01T06:42:12;16.13;;;8.25;;
45041;SDS011;30779;52.096;4.410;2022-08-01T06:45:14;17.02;;;9.38;;
45041;SDS011;30779;52.096;4.410;2022-08-01T06:48:16;18.23;;;10.20;;
45041;SDS011;30779;52.096;4.410;2022-08-01T06:51:16;19.40;;;9.45;;
45041;SDS011;30779;52.096;4.410;2022-08-01T06:54:19;14.73;;;9.25;;
45041;SDS011;30779;52.096;4.410;2022-08-01T06:57:21;18.23;;;8.35;;
45041;SDS011;30779;52.096;4.410;2022-08-01T07:00:22;19.70;;;9.43;;
45041;SDS011;30779;52.096;4.410;2022-08-01T07:03:24;18.55;;;8.55;;
45041;SDS011;30779;52.096;4.410;2022-08-01T07:06:24;19.92;;;8.38;;
45041;SDS011;30779;52.096;4.410;2022-08-01T07:09:26;12.13;;;8.25;;
45041;SDS011;30779;52.096;4.410;2022-08-01T07:12:26;14.70;;;7.63;;
45041;SDS011;30779;52.096;4.410;2022-08-01T07:15:27;13.75;;;7.82;;
45041;SDS011;30779;52.096;4.410;2022-08-01T07:18:28;14.48;;;8.38;;
45041;SDS011;30779;52.096;4.410;2022-08-01T07:21:28;16.80;;;7.63;;
45041;SDS011;30779;52.096;4.410;2022-08-01T07:24:29;9.95;;;5.07;;
45041;SDS011;30779;52.096;4.410;2022-08-01T07:27:29;10.18;;;4.80;;
45041;SDS011;30779;52.096;4.410;2022-08-01T07:30:30;9.57;;;5.15;;
45041;SDS011;30779;52.096;4.410;2022-08-01T07:33:31;13.63;;;4.60;;
45041;SDS011;30779;52.096;4.410;2022-08-01T07:36:31;9.27;;;4.53;;
45041;SDS011;30779;52.096;4.410;2022-08-01T07:39:32;11.30;;;4.43;;
45041;SDS011;30779;52.096;4.410;2022-08-01T07:42:33;9.32;;;4.50;;
45041;SDS011;30779;52.096;4.410;2022-08-01T07:45:33;9.48;;;4.93;;
45041;SDS011;30779;52.096;4.410;2022-08-01T07:48:34;8.85;;;4.38;;
45041;SDS011;30779;52.096;4.410;2022-08-01T07:51:34;9.00;;;3.50;;
45041;SDS011;30779;52.096;4.410;2022-08-01T07:54:35;10.43;;;5.35;;
45041;SDS011;30779;52.096;4.410;2022-08-01T07:57:37;7.90;;;3.92;;
45041;SDS011;30779;52.096;4.410;2022-08-01T08:00:38;10.27;;;4.25;;
45041;SDS011;30779;52.096;4.410;2022-08-01T08:03:38;10.73;;;4.63;;
45041;SDS011;30779;52.096;4.410;2022-08-01T08:06:39;7.65;;;3.55;;
45041;SDS011;30779;52.096;4.410;2022-08-01T08:09:41;7.50;;;2.90;;
45041;SDS011;30779;52.096;4.410;2022-08-01T08:12:41;3.72;;;2.80;;
45041;SDS011;30779;52.096;4.410;2022-08-01T08:15:42;10.93;;;3.25;;
45041;SDS011;30779;52.096;4.410;2022-08-01T08:18:43;8.55;;;2.90;;
45041;SDS011;30779;52.096;4.410;2022-08-01T08:21:44;5.25;;;2.70;;
45041;SDS011;30779;52.096;4.410;2022-08-01T08:24:44;6.00;;;3.05;;
45041;SDS011;30779;52.096;4.410;2022-08-01T08:27:45;9.27;;;3.90;;
45041;SDS011;30779;52.096;4.410;2022-08-01T08:30:46;7.25;;;3.00;;
45041;SDS011;30779;52.096;4.410;2022-08-01T08:33:47;10.20;;;2.88;;
45041;SDS011;30779;52.096;4.410;2022-08-01T08:36:48;4.90;;;2.25;;
45041;SDS011;30779;52.096;4.410;2022-08-01T08:39:49;6.40;;;2.10;;
45041;SDS011;30779;52.096;4.410;2022-08-01T08:42:50;7.32;;;3.00;;
45041;SDS011;30779;52.096;4.410;2022-08-01T08:45:51;5.00;;;2.10;;
45041;SDS011;30779;52.096;4.410;2022-08-01T08:48:53;5.75;;;2.58;;
45041;SDS011;30779;52.096;4.410;2022-08-01T08:52:00;5.63;;;2.30;;
45041;SDS011;30779;52.096;4.410;2022-08-01T08:55:02;7.93;;;2.65;;
45041;SDS011;30779;52.096;4.410;2022-08-01T08:58:03;5.28;;;1.90;;
45041;SDS011;30779;52.096;4.410;2022-08-01T09:01:05;7.30;;;2.38;;
45041;SDS011;30779;52.096;4.410;2022-08-01T09:04:08;6.90;;;2.05;;
45041;SDS011;30779;52.096;4.410;2022-08-01T09:07:09;5.00;;;2.17;;
45041;SDS011;30779;52.096;4.410;2022-08-01T09:10:11;3.10;;;1.80;;
45041;SDS011;30779;52.096;4.410;2022-08-01T09:13:13;6.80;;;2.30;;
45041;SDS011;30779;52.096;4.410;2022-08-01T09:16:15;4.65;;;2.03;;
45041;SDS011;30779;52.096;4.410;2022-08-01T09:19:19;4.15;;;1.95;;
45041;SDS011;30779;52.096;4.410;2022-08-01T09:22:21;3.92;;;2.50;;
45041;SDS011;30779;52.096;4.410;2022-08-01T09:25:23;5.75;;;2.60;;
45041;SDS011;30779;52.096;4.410;2022-08-01T09:28:27;6.40;;;2.13;;
45041;SDS011;30779;52.096;4.410;2022-08-01T09:31:29;5.55;;;2.13;;
45041;SDS011;30779;52.096;4.410;2022-08-01T09:34:42;5.93;;;2.65;;
45041;SDS011;30779;52.096;4.410;2022-08-01T09:37:43;5.03;;;2.58;;
45041;SDS011;30779;52.096;4.410;2022-08-01T09:40:56;5.43;;;2.08;;
45041;SDS011;30779;52.096;4.410;2022-08-01T09:43:58;6.05;;;2.17;;
45041;SDS011;30779;52.096;4.410;2022-08-01T09:46:59;5.43;;;2.30;;
45041;SDS011;30779;52.096;4.410;2022-08-01T09:49:59;6.63;;;2.38;;
45041;SDS011;30779;52.096;4.410;2022-08-01T09:53:00;9.20;;;2.42;;
45041;SDS011;30779;52.096;4.410;2022-08-01T09:56:11;8.57;;;3.00;;
45041;SDS011;30779;52.096;4.410;2022-08-01T09:59:13;10.43;;;2.75;;
45041;SDS011;30779;52.096;4.410;2022-08-01T10:02:14;7.90;;;2.85;;
45041;SDS011;30779;52.096;4.410;2022-08-01T10:05:31;9.73;;;3.63;;
45041;SDS011;30779;52.096;4.410;2022-08-01T10:08:44;8.80;;;4.30;;
45041;SDS011;30779;52.096;4.410;2022-08-01T10:11:46;6.50;;;2.90;;
45041;SDS011;30779;52.096;4.410;2022-08-01T10:14:48;7.30;;;2.92;;
45041;SDS011;30779;52.096;4.410;2022-08-01T10:17:52;7.35;;;3.10;;
45041;SDS011;30779;52.096;4.410;2022-08-01T10:20:55;9.27;;;3.05;;
45041;SDS011;30779;52.096;4.410;2022-08-01T10:23:56;4.32;;;2.38;;
45041;SDS011;30779;52.096;4.410;2022-08-01T10:27:02;6.55;;;2.92;;
45041;SDS011;30779;52.096;4.410;2022-08-01T10:30:04;4.43;;;1.88;;
45041;SDS011;30779;52.096;4.410;2022-08-01T10:33:08;3.35;;;1.88;;
45041;SDS011;30779;52.096;4.410;2022-08-01T10:36:10;5.78;;;2.60;;
45041;SDS011;30779;52.096;4.410;2022-08-01T10:39:11;4.50;;;1.50;;
45041;SDS011;30779;52.096;4.410;2022-08-01T10:42:12;5.85;;;2.65;;
45041;SDS011;30779;52.096;4.410;2022-08-01T10:45:14;6.55;;;2.40;;
45041;SDS011;30779;52.096;4.410;2022-08-01T10:48:21;11.48;;;3.60;;
45041;SDS011;30779;52.096;4.410;2022-08-01T10:51:31;9.25;;;2.40;;
45041;SDS011;30779;52.096;4.410;2022-08-01T10:54:40;8.30;;;2.75;;
45041;SDS011;30779;52.096;4.410;2022-08-01T10:57:44;11.63;;;2.72;;
45041;SDS011;30779;52.096;4.410;2022-08-01T11:00:46;9.18;;;3.65;;
45041;SDS011;30779;52.096;4.410;2022-08-01T11:03:57;8.70;;;2.70;;
45041;SDS011;30779;52.096;4.410;2022-08-01T11:07:12;5.93;;;2.58;;
45041;SDS011;30779;52.096;4.410;2022-08-01T11:10:59;15.77;;;4.80;;
45041;SDS011;30779;52.096;4.410;2022-08-01T11:20:35;6.13;;;2.95;;
45041;SDS011;30779;52.096;4.410;2022-08-01T11:23:46;12.45;;;2.80;;
45041;SDS011;30779;52.096;4.410;2022-08-01T11:30:27;5.53;;;2.30;;
45041;SDS011;30779;52.096;4.410;2022-08-01T11:39:42;10.45;;;2.42;;
45041;SDS011;30779;52.096;4.410;2022-08-01T11:42:43;8.48;;;2.85;;
45041;SDS011;30779;52.096;4.410;2022-08-01T11:45:51;4.53;;;1.70;;
45041;SDS011;30779;52.096;4.410;2022-08-01T11:52:27;8.75;;;2.20;;
45041;SDS011;30779;52.096;4.410;2022-08-01T11:55:30;8.88;;;2.10;;
45041;SDS011;30779;52.096;4.410;2022-08-01T11:58:30;3.80;;;1.70;;
45041;SDS011;30779;52.096;4.410;2022-08-01T12:01:33;7.10;;;2.05;;
45041;SDS011;30779;52.096;4.410;2022-08-01T12:04:44;3.53;;;1.73;;
45041;SDS011;30779;52.096;4.410;2022-08-01T12:07:49;13.02;;;2.97;;
45041;SDS011;30779;52.096;4.410;2022-08-01T12:10:51;6.05;;;2.42;;
45041;SDS011;30779;52.096;4.410;2022-08-01T12:13:52;5.15;;;2.40;;
45041;SDS011;30779;52.096;4.410;2022-08-01T12:16:53;8.23;;;2.45;;
45041;SDS011;30779;52.096;4.410;2022-08-01T12:19:54;4.63;;;1.90;;
45041;SDS011;30779;52.096;4.410;2022-08-01T12:22:55;6.00;;;2.15;;
45041;SDS011;30779;52.096;4.410;2022-08-01T12:25:57;5.97;;;1.90;;
45041;SDS011;30779;52.096;4.410;2022-08-01T12:28:58;4.30;;;1.80;;
45041;SDS011;30779;52.096;4.410;2022-08-01T12:31:58;4.50;;;1.83;;
45041;SDS011;30779;52.096;4.410;2022-08-01T12:35:06;5.13;;;1.65;;
45041;SDS011;30779;52.096;4.410;2022-08-01T12:38:15;6.75;;;2.13;;
45041;SDS011;30779;52.096;4.410;2022-08-01T12:41:18;4.88;;;1.52;;
45041;SDS011;30779;52.096;4.410;2022-08-01T12:44:18;5.68;;;2.38;;
45041;SDS011;30779;52.096;4.410;2022-08-01T12:47:19;5.78;;;2.05;;
45041;SDS011;30779;52.096;4.410;2022-08-01T12:50:22;5.17;;;2.00;;
45041;SDS011;30779;52.096;4.410;2022-08-01T12:53:25;7.55;;;1.70;;
45041;SDS011;30779;52.096;4.410;2022-08-01T12:56:32;6.50;;;2.33;;
45041;SDS011;30779;52.096;4.410;2022-08-01T12:59:34;5.50;;;1.60;;
45041;SDS011;30779;52.096;4.410;2022-08-01T13:02:34;4.10;;;1.70;;
45041;SDS011;30779;52.096;4.410;2022-08-01T13:05:45;5.47;;;1.90;;
45041;SDS011;30779;52.096;4.410;2022-08-01T13:09:09;5.43;;;2.20;;
45041;SDS011;30779;52.096;4.410;2022-08-01T13:12:11;7.07;;;1.98;;
45041;SDS011;30779;52.096;4.410;2022-08-01T13:15:20;3.35;;;1.45;;
45041;SDS011;30779;52.096;4.410;2022-08-01T13:21:32;5.40;;;1.65;;
45041;SDS011;30779;52.096;4.410;2022-08-01T13:24:32;6.60;;;2.22;;
45041;SDS011;30779;52.096;4.410;2022-08-01T13:27:33;3.30;;;1.60;;
45041;SDS011;30779;52.096;4.410;2022-08-01T13:30:33;3.08;;;1.23;;
45041;SDS011;30779;52.096;4.410;2022-08-01T13:33:44;2.53;;;1.70;;
45041;SDS011;30779;52.096;4.410;2022-08-01T13:36:46;3.45;;;1.20;;
45041;SDS011;30779;52.096;4.410;2022-08-01T13:39:47;3.67;;;1.40;;
45041;SDS011;30779;52.096;4.410;2022-08-01T13:42:48;2.47;;;1.55;;
45041;SDS011;30779;52.096;4.410;2022-08-01T13:45:49;4.32;;;1.40;;
45041;SDS011;30779;52.096;4.410;2022-08-01T13:48:50;3.35;;;1.30;;
45041;SDS011;30779;52.096;4.410;2022-08-01T13:51:50;3.80;;;1.65;;
45041;SDS011;30779;52.096;4.410;2022-08-01T13:54:51;2.92;;;1.38;;
45041;SDS011;30779;52.096;4.410;2022-08-01T13:57:52;2.60;;;1.30;;
45041;SDS011;30779;52.096;4.410;2022-08-01T14:00:52;4.03;;;1.48;;
45041;SDS011;30779;52.096;4.410;2022-08-01T14:03:53;2.45;;;1.00;;
45041;SDS011;30779;52.096;4.410;2022-08-01T14:06:54;2.20;;;1.10;;
45041;SDS011;30779;52.096;4.410;2022-08-01T14:09:54;4.35;;;1.48;;
45041;SDS011;30779;52.096;4.410;2022-08-01T14:12:55;2.25;;;1.20;;
45041;SDS011;30779;52.096;4.410;2022-08-01T14:15:57;2.33;;;1.15;;
45041;SDS011;30779;52.096;4.410;2022-08-01T14:18:58;3.38;;;1.30;;
45041;SDS011;30779;52.096;4.410;2022-08-01T14:21:58;1.98;;;0.95;;
45041;SDS011;30779;52.096;4.410;2022-08-01T14:24:59;4.35;;;1.50;;
45041;SDS011;30779;52.096;4.410;2022-08-01T14:27:59;8.13;;;1.50;;
45041;SDS011;30779;52.096;4.410;2022-08-01T14:31:00;3.08;;;1.10;;
45041;SDS011;30779;52.096;4.410;2022-08-01T14:34:01;4.68;;;1.50;;
45041;SDS011;30779;52.096;4.410;2022-08-01T14:37:02;2.60;;;1.23;;
45041;SDS011;30779;52.096;4.410;2022-08-01T14:40:02;3.60;;;1.10;;
45041;SDS011;30779;52.096;4.410;2022-08-01T14:43:07;5.80;;;1.63;;
45041;SDS011;30779;52.096;4.410;2022-08-01T14:46:07;3.35;;;1.25;;
45041;SDS011;30779;52.096;4.410;2022-08-01T14:49:09;2.88;;;1.27;;
45041;SDS011;30779;52.096;4.410;2022-08-01T14:52:10;4.28;;;1.33;;
45041;SDS011;30779;52.096;4.410;2022-08-01T14:55:11;5.55;;;1.27;;
45041;SDS011;30779;52.096;4.410;2022-08-01T14:58:13;4.32;;;1.33;;
45041;SDS011;30779;52.096;4.410;2022-08-01T15:01:14;2.72;;;1.40;;
45041;SDS011;30779;52.096;4.410;2022-08-01T15:04:15;2.47;;;1.27;;
45041;SDS011;30779;52.096;4.410;2022-08-01T15:07:17;4.78;;;1.25;;
45041;SDS011;30779;52.096;4.410;2022-08-01T15:10:18;2.50;;;1.30;;
45041;SDS011;30779;52.096;4.410;2022-08-01T15:13:19;1.95;;;1.10;;
45041;SDS011;30779;52.096;4.410;2022-08-01T15:16:20;5.95;;;1.58;;
45041;SDS011;30779;52.096;4.410;2022-08-01T15:19:20;2.45;;;1.00;;
45041;SDS011;30779;52.096;4.410;2022-08-01T15:22:21;2.90;;;1.45;;
45041;SDS011;30779;52.096;4.410;2022-08-01T15:25:23;1.90;;;1.20;;
45041;SDS011;30779;52.096;4.410;2022-08-01T15:28:24;4.13;;;1.20;;
45041;SDS011;30779;52.096;4.410;2022-08-01T15:31:25;1.75;;;0.98;;
45041;SDS011;30779;52.096;4.410;2022-08-01T15:34:25;1.20;;;1.00;;
45041;SDS011;30779;52.096;4.410;2022-08-01T15:37:26;5.15;;;1.33;;
45041;SDS011;30779;52.096;4.410;2022-08-01T15:40:26;2.97;;;1.25;;
45041;SDS011;30779;52.096;4.410;2022-08-01T15:43:28;3.33;;;1.10;;
45041;SDS011;30779;52.096;4.410;2022-08-01T15:46:28;2.03;;;1.10;;
45041;SDS011;30779;52.096;4.410;2022-08-01T15:49:29;3.35;;;1.15;;
45041;SDS011;30779;52.096;4.410;2022-08-01T15:52:31;1.95;;;1.02;;
45041;SDS011;30779;52.096;4.410;2022-08-01T15:55:31;2.15;;;1.05;;
45041;SDS011;30779;52.096;4.410;2022-08-01T15:58:34;4.72;;;1.25;;
45041;SDS011;30779;52.096;4.410;2022-08-01T16:01:35;1.88;;;1.05;;
45041;SDS011;30779;52.096;4.410;2022-08-01T16:04:37;2.08;;;1.13;;
45041;SDS011;30779;52.096;4.410;2022-08-01T16:07:38;3.13;;;1.40;;
45041;SDS011;30779;52.096;4.410;2022-08-01T16:10:39;2.45;;;1.00;;
45041;SDS011;30779;52.096;4.410;2022-08-01T16:13:39;1.95;;;0.90;;
45041;SDS011;30779;52.096;4.410;2022-08-01T16:16:40;2.30;;;0.93;;
45041;SDS011;30779;52.096;4.410;2022-08-01T16:19:41;2.28;;;1.20;;
45041;SDS011;30779;52.096;4.410;2022-08-01T16:22:42;1.67;;;0.70;;
45041;SDS011;30779;52.096;4.410;2022-08-01T16:25:42;1.65;;;0.80;;
45041;SDS011;30779;52.096;4.410;2022-08-01T16:28:44;1.63;;;0.88;;
45041;SDS011;30779;52.096;4.410;2022-08-01T16:31:47;1.63;;;0.73;;
45041;SDS011;30779;52.096;4.410;2022-08-01T16:34:47;1.73;;;0.75;;
45041;SDS011;30779;52.096;4.410;2022-08-01T16:37:48;4.25;;;1.00;;
45041;SDS011;30779;52.096;4.410;2022-08-01T16:40:49;1.65;;;0.80;;
45041;SDS011;30779;52.096;4.410;2022-08-01T16:43:50;2.45;;;0.63;;
45041;SDS011;30779;52.096;4.410;2022-08-01T16:46:51;3.70;;;1.10;;
45041;SDS011;30779;52.096;4.410;2022-08-01T16:49:51;2.63;;;0.90;;
45041;SDS011;30779;52.096;4.410;2022-08-01T16:52:52;3.22;;;0.80;;
45041;SDS011;30779;52.096;4.410;2022-08-01T16:55:53;3.03;;;0.85;;
45041;SDS011;30779;52.096;4.410;2022-08-01T16:58:54;1.60;;;0.80;;
45041;SDS011;30779;52.096;4.410;2022-08-01T17:01:54;2.13;;;0.70;;
45041;SDS011;30779;52.096;4.410;2022-08-01T17:04:55;3.75;;;0.90;;
45041;SDS011;30779;52.096;4.410;2022-08-01T17:07:55;2.63;;;0.90;;
45041;SDS011;30779;52.096;4.410;2022-08-01T17:10:56;1.45;;;0.98;;
45041;SDS011;30779;52.096;4.410;2022-08-01T17:13:57;3.05;;;0.90;;
45041;SDS011;30779;52.096;4.410;2022-08-01T17:16:57;5.07;;;1.02;;
45041;SDS011;30779;52.096;4.410;2022-08-01T17:19:58;2.38;;;0.93;;
45041;SDS011;30779;52.096;4.410;2022-08-01T17:22:59;2.20;;;0.82;;
45041;SDS011;30779;52.096;4.410;2022-08-01T17:26:00;3.03;;;0.70;;
45041;SDS011;30779;52.096;4.410;2022-08-01T17:29:01;2.92;;;1.10;;
45041;SDS011;30779;52.096;4.410;2022-08-01T17:32:02;1.90;;;0.80;;
45041;SDS011;30779;52.096;4.410;2022-08-01T17:35:03;2.67;;;0.73;;
45041;SDS011;30779;52.096;4.410;2022-08-01T17:38:04;1.67;;;0.70;;
45041;SDS011;30779;52.096;4.410;2022-08-01T17:41:04;3.90;;;0.98;;
45041;SDS011;30779;52.096;4.410;2022-08-01T17:44:05;1.20;;;0.70;;
45041;SDS011;30779;52.096;4.410;2022-08-01T17:47:06;2.60;;;1.30;;
45041;SDS011;30779;52.096;4.410;2022-08-01T17:50:08;2.17;;;1.20;;
45041;SDS011;30779;52.096;4.410;2022-08-01T17:53:10;2.33;;;1.15;;
45041;SDS011;30779;52.096;4.410;2022-08-01T17:56:12;4.25;;;0.90;;
45041;SDS011;30779;52.096;4.410;2022-08-01T17:59:12;2.15;;;0.98;;
45041;SDS011;30779;52.096;4.410;2022-08-01T18:02:13;1.65;;;0.93;;
45041;SDS011;30779;52.096;4.410;2022-08-01T18:05:14;3.05;;;0.93;;
45041;SDS011;30779;52.096;4.410;2022-08-01T18:08:14;1.98;;;0.80;;
45041;SDS011;30779;52.096;4.410;2022-08-01T18:11:15;2.10;;;1.00;;
45041;SDS011;30779;52.096;4.410;2022-08-01T18:14:16;1.73;;;0.77;;
45041;SDS011;30779;52.096;4.410;2022-08-01T18:17:16;2.72;;;0.90;;
45041;SDS011;30779;52.096;4.410;2022-08-01T18:20:17;2.97;;;0.60;;
45041;SDS011;30779;52.096;4.410;2022-08-01T18:23:18;6.88;;;2.00;;
45041;SDS011;30779;52.096;4.410;2022-08-01T18:26:19;1.83;;;0.90;;
45041;SDS011;30779;52.096;4.410;2022-08-01T18:29:20;1.75;;;1.00;;
45041;SDS011;30779;52.096;4.410;2022-08-01T18:32:22;1.27;;;1.00;;
45041;SDS011;30779;52.096;4.410;2022-08-01T18:35:23;1.77;;;0.80;;
45041;SDS011;30779;52.096;4.410;2022-08-01T18:38:24;2.70;;;1.17;;
45041;SDS011;30779;52.096;4.410;2022-08-01T18:41:25;2.05;;;0.88;;
45041;SDS011;30779;52.096;4.410;2022-08-01T18:44:26;1.80;;;0.70;;
45041;SDS011;30779;52.096;4.410;2022-08-01T18:47:28;6.07;;;1.23;;
45041;SDS011;30779;52.096;4.410;2022-08-01T18:50:29;3.42;;;0.90;;
45041;SDS011;30779;52.096;4.410;2022-08-01T18:53:30;1.50;;;1.17;;
45041;SDS011;30779;52.096;4.410;2022-08-01T18:56:31;1.42;;;1.00;;
45041;SDS011;30779;52.096;4.410;2022-08-01T18:59:31;1.25;;;1.00;;